Nagua, Dominican Republic
Current Conditions -  °F | °C
As of 8:00 PM on Saturday 25 Oct 2014 (Local Time) from MDCY Reporting Station
Few Clouds Few Clouds  
Wind Chill: 81°   Ceiling: Unl
Heat Index: 87°   Visibility: 6mi
Dew Point: 77°   Wind: 12mph
Humidity: 89%   Direction: 180°S
Pressure: 29.8"   Gusts: NA
Location:  19.38°N, 69.85°W
Report Text: MDCY 260000Z 18010KT 9999 FEW020CB FEW020 27/25 Q1009 CB/NW
Loading
Personal Weather Stations






























Interactive Weather Map
Tropical Storm Tracking
New forecast layout! Learn more

10-Day Weather Forecast

Advertisements
Track Severe Weather on mobile